Time;durP1;ratioP1;P1;durP2;ratioP2;P2;SDS_P1;SDS_P2;PMS_P1;PMS_P2;Temp;Humidity;BMP_temperature;BMP_pressure;BME280_temperature;BME280_humidity;BME280_pressure;Samples;Min_cycle;Max_cycle;Signal;HPM_P1;HPM_P2
2020/12/17 00:00:50;;;;;;;14.18;6.60;;;29.10;99.90;;;;;;5131357;27;20577;-59
2020/12/17 00:03:17;;;;;;;12.60;6.68;;;29.40;99.90;;;;;;5134958;27;20026;-61
2020/12/17 00:05:44;;;;;;;11.68;6.20;;;29.60;99.90;;;;;;5134955;27;20137;-60
2020/12/17 00:08:18;;;;;;;15.00;5.80;;;29.40;99.90;;;;;;5134832;27;20051;-60
2020/12/17 00:10:46;;;;;;;14.57;6.15;;;29.50;99.90;;;;;;5134778;27;20106;-61
2020/12/17 00:13:14;;;;;;;4.63;4.30;;;29.70;99.90;;;;;;5135023;27;20029;-61
2020/12/17 00:15:41;;;;;;;4.72;4.22;;;29.90;99.90;;;;;;5135136;27;20037;-60
2020/12/17 00:18:08;;;;;;;12.25;5.95;;;30.30;99.90;;;;;;5134977;27;20028;-59
2020/12/17 00:20:36;;;;;;;10.27;6.25;;;30.60;99.90;;;;;;5134845;27;20103;-63
2020/12/17 00:23:04;;;;;;;9.63;5.15;;;30.70;99.90;;;;;;5134693;27;20038;-60
2020/12/17 00:25:32;;;;;;;7.55;5.90;;;30.70;99.90;;;;;;5134985;27;20042;-60
2020/12/17 00:28:00;;;;;;;4.47;4.10;;;30.70;99.90;;;;;;5135087;27;20023;-59
2020/12/17 00:30:28;;;;;;;4.07;3.80;;;30.60;99.90;;;;;;5134498;27;20088;-61
2020/12/17 00:32:56;;;;;;;5.20;4.70;;;30.20;99.90;;;;;;5134852;27;20018;-60
2020/12/17 00:35:23;;;;;;;4.57;4.20;;;30.30;99.90;;;;;;5134666;27;20023;-60
2020/12/17 00:37:51;;;;;;;4.90;4.50;;;30.70;99.90;;;;;;5134969;27;20414;-60
2020/12/17 00:40:19;;;;;;;4.82;4.53;;;31.00;99.90;;;;;;5134338;27;20393;-60
2020/12/17 00:42:48;;;;;;;4.63;4.35;;;31.30;99.90;;;;;;5115944;27;20023;-58
2020/12/17 00:45:16;;;;;;;4.10;4.00;;;31.30;99.90;;;;;;5134201;27;20479;-59
2020/12/17 00:47:44;;;;;;;4.45;4.35;;;31.60;99.90;;;;;;5133934;27;20027;-59
2020/12/17 00:50:20;;;;;;;4.00;3.80;;;31.80;99.90;;;;;;5115952;27;20387;-61
2020/12/17 00:52:48;;;;;;;3.75;3.55;;;32.10;99.90;;;;;;5115859;27;20031;-59
2020/12/17 00:55:16;;;;;;;3.35;3.15;;;31.90;99.90;;;;;;5133926;27;20023;-59
2020/12/17 00:57:43;;;;;;;3.30;3.20;;;31.90;99.90;;;;;;5134516;27;20030;-59
2020/12/17 01:00:11;;;;;;;3.42;3.33;;;32.20;99.90;;;;;;5115933;27;20061;-59
2020/12/17 01:02:38;;;;;;;4.07;3.78;;;32.20;99.90;;;;;;5115892;27;20384;-59
2020/12/17 01:05:06;;;;;;;3.55;3.30;;;32.20;99.90;;;;;;5134069;27;20084;-60
2020/12/17 01:07:34;;;;;;;3.22;3.03;;;32.40;99.90;;;;;;5133188;27;20490;-60
2020/12/17 01:10:03;;;;;;;4.63;3.28;;;32.50;99.90;;;;;;5133793;27;20023;-60
2020/12/17 01:12:31;;;;;;;3.37;3.27;;;32.50;99.90;;;;;;5134107;27;20031;-59
2020/12/17 01:14:59;;;;;;;6.43;4.10;;;32.20;99.90;;;;;;5111144;28;20027;-59
2020/12/17 01:17:27;;;;;;;5.05;4.10;;;31.90;99.90;;;;;;5111086;28;20036;-59
2020/12/17 01:19:55;;;;;;;5.40;5.00;;;31.60;99.90;;;;;;5111048;28;20043;-60
2020/12/17 01:22:23;;;;;;;8.18;6.05;;;31.30;99.90;;;;;;5110922;28;20527;-59
2020/12/17 01:24:50;;;;;;;9.90;5.50;;;31.10;99.90;;;;;;5110822;28;20043;-59
2020/12/17 01:27:18;;;;;;;10.27;6.68;;;30.70;99.90;;;;;;5110953;28;20035;-59
2020/12/17 01:29:45;;;;;;;9.75;6.10;;;30.40;99.90;;;;;;5110767;28;20039;-59
2020/12/17 01:32:16;;;;;;;7.95;5.70;;;30.30;99.90;;;;;;5110814;28;20114;-59
2020/12/17 01:34:43;;;;;;;9.80;6.30;;;30.20;99.90;;;;;;5094189;28;20436;-60
2020/12/17 01:37:11;;;;;;;8.65;5.93;;;30.50;99.90;;;;;;5110671;28;20023;-61
2020/12/17 01:39:39;;;;;;;8.75;5.57;;;30.70;99.90;;;;;;5110769;28;20027;-60
2020/12/17 01:42:06;;;;;;;9.93;5.97;;;30.50;99.90;;;;;;5110638;28;20028;-60
2020/12/17 01:44:39;;;;;;;9.07;6.10;;;30.30;99.90;;;;;;5110800;28;20055;-60
2020/12/17 01:47:07;;;;;;;12.20;5.97;;;30.60;99.90;;;;;;5132968;28;20039;-60
2020/12/17 01:49:38;;;;;;;7.38;6.28;;;30.70;99.90;;;;;;5080360;28;20035;-60
2020/12/17 01:52:05;;;;;;;7.65;5.70;;;30.70;99.90;;;;;;5133334;28;20480;-60
2020/12/17 01:54:32;;;;;;;7.10;6.20;;;30.40;99.90;;;;;;5133232;28;20016;-59
2020/12/17 01:57:04;;;;;;;9.27;6.88;;;30.10;99.90;;;;;;5133252;28;20503;-60
2020/12/17 01:59:48;;;;;;;6.80;6.10;;;30.20;99.90;;;;;;5133143;28;20027;-59
2020/12/17 02:02:17;;;;;;;7.95;6.03;;;30.30;99.90;;;;;;5133249;28;20047;-58
2020/12/17 02:04:46;;;;;;;8.10;6.13;;;30.40;99.90;;;;;;5133166;27;20030;-59
2020/12/17 02:07:14;;;;;;;9.25;6.32;;;30.80;99.90;;;;;;5097223;28;20364;-60
2020/12/17 02:09:41;;;;;;;8.63;6.65;;;30.90;99.90;;;;;;5133406;28;20380;-60
2020/12/17 02:12:09;;;;;;;9.15;6.53;;;30.60;99.90;;;;;;5133439;28;20020;-60
2020/12/17 02:14:37;;;;;;;7.53;6.47;;;30.30;99.90;;;;;;5133076;28;20030;-60
2020/12/17 02:17:04;;;;;;;9.35;6.82;;;29.90;99.90;;;;;;5133361;28;20386;-60
2020/12/17 02:19:32;;;;;;;7.30;6.47;;;29.50;99.90;;;;;;5135672;27;20023;-60
2020/12/17 02:21:59;;;;;;;9.00;6.30;;;29.50;99.90;;;;;;5137409;27;20042;-58
2020/12/17 02:24:27;;;;;;;11.35;6.13;;;29.80;99.90;;;;;;5101382;27;20422;-58
2020/12/17 02:26:54;;;;;;;7.93;5.95;;;30.10;99.90;;;;;;5137318;27;20114;-59
2020/12/17 02:29:22;;;;;;;8.50;5.53;;;30.50;99.90;;;;;;5137050;27;20471;-58
2020/12/17 02:31:50;;;;;;;7.50;5.63;;;30.90;99.90;;;;;;5137093;27;20027;-59
2020/12/17 02:34:17;;;;;;;8.55;5.40;;;31.00;99.90;;;;;;5136726;27;20019;-59
2020/12/17 02:36:45;;;;;;;8.93;6.03;;;31.20;99.90;;;;;;5136765;27;20360;-58
2020/12/17 02:39:13;;;;;;;10.40;6.13;;;31.10;99.90;;;;;;5136978;27;20528;-59
2020/12/17 02:41:41;;;;;;;9.43;5.53;;;30.60;99.90;;;;;;5136818;27;20053;-60
2020/12/17 02:44:08;;;;;;;9.38;6.07;;;30.00;99.90;;;;;;5136556;27;20035;-59
2020/12/17 02:46:35;;;;;;;8.85;6.38;;;30.00;99.90;;;;;;5136758;27;20041;-59
2020/12/17 02:49:04;;;;;;;10.75;6.10;;;30.30;99.90;;;;;;5136457;27;20046;-59
2020/12/17 02:51:31;;;;;;;8.32;6.93;;;30.70;99.90;;;;;;5100318;27;20061;-59
2020/12/17 02:53:59;;;;;;;8.80;6.05;;;31.00;99.90;;;;;;5136556;27;20030;-59
2020/12/17 02:56:26;;;;;;;7.35;6.22;;;31.20;99.90;;;;;;5136597;27;20501;-59
2020/12/17 02:58:54;;;;;;;11.27;6.45;;;31.00;99.90;;;;;;5136551;27;20026;-59
2020/12/17 03:01:21;;;;;;;11.30;6.20;;;30.60;99.90;;;;;;5136606;27;20378;-59
2020/12/17 03:03:49;;;;;;;7.35;5.55;;;30.40;99.90;;;;;;5136212;27;20023;-59
2020/12/17 03:06:17;;;;;;;9.35;6.28;;;30.50;99.90;;;;;;5136319;27;20443;-58
2020/12/17 03:08:44;;;;;;;11.23;6.60;;;30.70;99.90;;;;;;5136609;27;20444;-59
2020/12/17 03:11:11;;;;;;;8.85;6.30;;;30.80;99.90;;;;;;5136649;27;20072;-60
2020/12/17 03:13:39;;;;;;;9.20;6.25;;;30.90;99.90;;;;;;5136709;27;20356;-60
2020/12/17 03:16:06;;;;;;;8.68;5.93;;;31.10;99.90;;;;;;5136200;27;20340;-60
2020/12/17 03:18:34;;;;;;;7.60;6.03;;;30.80;99.90;;;;;;5135979;27;20027;-59
2020/12/17 03:21:01;;;;;;;8.30;6.10;;;30.60;99.90;;;;;;5136272;27;20038;-59
2020/12/17 03:23:29;;;;;;;6.95;5.93;;;30.50;99.90;;;;;;5136248;27;20015;-59
2020/12/17 03:25:56;;;;;;;7.50;5.63;;;30.20;99.90;;;;;;5136023;27;20027;-60
2020/12/17 03:28:24;;;;;;;7.35;6.00;;;30.00;99.90;;;;;;5136110;27;20099;-59
2020/12/17 03:30:51;;;;;;;7.57;6.15;;;30.00;99.90;;;;;;5134813;27;20027;-60
2020/12/17 03:33:19;;;;;;;9.13;6.45;;;30.30;99.90;;;;;;5135963;27;20027;-60
2020/12/17 03:35:46;;;;;;;7.50;6.43;;;30.40;99.90;;;;;;5135878;27;20495;-59
2020/12/17 03:38:14;;;;;;;7.03;5.88;;;30.30;99.90;;;;;;5100192;27;20020;-60
2020/12/17 03:40:41;;;;;;;8.68;6.82;;;30.20;99.90;;;;;;5135794;27;20110;-59
2020/12/17 03:43:09;;;;;;;7.32;6.07;;;30.30;99.90;;;;;;5135807;27;20383;-58
2020/12/17 03:45:36;;;;;;;11.88;6.38;;;30.60;99.90;;;;;;5135595;27;20027;-59
2020/12/17 03:48:04;;;;;;;7.85;6.55;;;30.80;99.90;;;;;;5135608;27;20026;-56
2020/12/17 03:50:32;;;;;;;7.15;6.43;;;30.70;99.90;;;;;;5135475;27;20023;-57
2020/12/17 03:52:59;;;;;;;11.85;6.22;;;30.90;99.90;;;;;;5135269;27;20401;-57
2020/12/17 03:55:27;;;;;;;8.77;6.10;;;30.90;99.90;;;;;;5135196;27;20094;-57
2020/12/17 03:57:54;;;;;;;7.07;6.00;;;31.10;99.90;;;;;;5135209;27;20483;-57
2020/12/17 04:00:21;;;;;;;6.47;5.80;;;31.10;99.90;;;;;;5135090;27;20023;-56
2020/12/17 04:02:49;;;;;;;9.02;5.93;;;31.10;99.90;;;;;;5135252;27;20027;-58
2020/12/17 04:05:16;;;;;;;9.65;5.72;;;31.30;99.90;;;;;;5134909;27;20054;-57
2020/12/17 04:07:43;;;;;;;8.23;5.75;;;31.60;99.90;;;;;;5134841;27;20086;-56
2020/12/17 04:10:11;;;;;;;8.10;6.00;;;31.40;99.90;;;;;;5135112;27;20081;-57
2020/12/17 04:12:39;;;;;;;9.85;6.10;;;31.10;99.90;;;;;;5134789;27;20475;-58
2020/12/17 04:15:06;;;;;;;10.45;6.80;;;31.20;99.90;;;;;;5135200;27;20371;-59
2020/12/17 04:17:34;;;;;;;8.43;6.35;;;31.20;99.90;;;;;;5134865;27;20049;-59
2020/12/17 04:20:02;;;;;;;11.02;6.68;;;31.20;99.90;;;;;;5133298;27;20035;-59
2020/12/17 04:22:29;;;;;;;7.93;6.88;;;31.30;99.90;;;;;;5116192;27;20087;-59
2020/12/17 04:24:57;;;;;;;8.27;6.65;;;31.40;99.90;;;;;;5134548;27;20023;-58
2020/12/17 04:27:24;;;;;;;7.70;7.00;;;31.50;99.90;;;;;;5134881;27;20039;-58
2020/12/17 04:29:52;;;;;;;8.73;6.75;;;31.50;99.90;;;;;;5134479;27;20441;-58
2020/12/17 04:32:20;;;;;;;8.50;6.70;;;31.20;99.90;;;;;;5134504;27;20023;-58
2020/12/17 04:34:47;;;;;;;7.35;6.15;;;31.00;99.90;;;;;;5134680;27;20106;-58
2020/12/17 04:37:15;;;;;;;6.45;5.90;;;30.70;99.90;;;;;;5134591;27;20027;-58
2020/12/17 04:39:43;;;;;;;8.05;6.10;;;30.50;99.90;;;;;;5134213;27;20021;-57
2020/12/17 04:42:14;;;;;;;7.07;6.38;;;30.30;99.90;;;;;;5098677;27;20042;-57
2020/12/17 04:44:44;;;;;;;8.77;6.32;;;30.40;99.90;;;;;;5134512;27;20031;-57
2020/12/17 04:47:18;;;;;;;7.90;6.57;;;30.40;99.90;;;;;;5134095;27;20027;-57
2020/12/17 04:49:52;;;;;;;9.40;6.90;;;30.20;99.90;;;;;;5134085;27;20035;-57
2020/12/17 04:52:21;;;;;;;10.18;6.88;;;29.90;99.90;;;;;;5134043;27;20084;-57
2020/12/17 04:54:50;;;;;;;9.50;7.10;;;29.60;99.90;;;;;;5116440;27;20038;-56
2020/12/17 04:57:20;;;;;;;8.18;7.00;;;29.30;99.90;;;;;;5134187;27;20024;-57
2020/12/17 04:59:50;;;;;;;12.05;7.68;;;29.00;99.90;;;;;;5134006;27;20479;-58
2020/12/17 05:02:20;;;;;;;9.60;7.30;;;28.70;99.90;;;;;;5133976;27;20055;-58
2020/12/17 05:04:50;;;;;;;10.40;7.15;;;28.50;99.90;;;;;;5133940;27;20031;-58
2020/12/17 05:07:19;;;;;;;10.63;6.70;;;28.20;99.90;;;;;;5133533;27;20086;-58
2020/12/17 05:09:50;;;;;;;11.60;7.18;;;28.10;99.90;;;;;;5134035;27;20023;-58
2020/12/17 05:12:23;;;;;;;10.93;6.95;;;27.90;99.90;;;;;;5133774;27;20071;-59
2020/12/17 05:14:51;;;;;;;10.75;7.25;;;27.70;99.90;;;;;;5133763;27;20027;-59
2020/12/17 05:17:18;;;;;;;10.60;6.88;;;27.60;99.90;;;;;;5133683;27;20111;-56
2020/12/17 05:19:46;;;;;;;15.35;7.55;;;27.50;99.90;;;;;;5115921;27;20102;-58
2020/12/17 05:22:14;;;;;;;10.48;6.35;;;27.50;99.90;;;;;;5134182;27;20363;-58
2020/12/17 05:24:46;;;;;;;11.68;6.20;;;27.60;99.90;;;;;;5133969;27;20110;-57
2020/12/17 05:27:14;;;;;;;11.57;6.53;;;28.20;99.90;;;;;;5133923;27;20024;-56
2020/12/17 05:29:43;;;;;;;11.60;6.35;;;28.80;99.90;;;;;;5133609;27;20049;-56
2020/12/17 05:32:18;;;;;;;11.75;6.60;;;29.30;99.90;;;;;;5134082;28;20456;-56
2020/12/17 05:34:45;;;;;;;10.38;5.60;;;29.60;99.90;;;;;;5133564;28;20087;-57
2020/12/17 05:37:14;;;;;;;12.52;5.82;;;30.10;99.90;;;;;;5133699;28;20048;-57
2020/12/17 05:39:45;;;;;;;10.75;5.57;;;30.30;99.90;;;;;;5133407;28;20031;-57
2020/12/17 05:42:15;;;;;;;11.68;6.40;;;30.40;99.90;;;;;;5097966;28;20039;-57
2020/12/17 05:44:42;;;;;;;10.88;6.07;;;30.40;99.90;;;;;;5133567;28;20061;-57
2020/12/17 05:47:16;;;;;;;11.52;6.13;;;30.50;99.90;;;;;;5114840;28;20035;-57
2020/12/17 05:49:44;;;;;;;9.85;5.45;;;30.70;99.90;;;;;;5133224;28;20062;-57
2020/12/17 05:52:21;;;;;;;8.90;5.63;;;30.80;99.90;;;;;;5133502;28;20023;-57
2020/12/17 05:55:06;;;;;;;8.70;5.72;;;30.80;99.90;;;;;;5136502;27;20023;-56
2020/12/17 05:57:34;;;;;;;12.68;6.20;;;30.80;99.90;;;;;;5101305;27;20042;-56
2020/12/17 06:00:05;;;;;;;9.27;6.25;;;30.90;99.90;;;;;;5137967;27;20058;-57
2020/12/17 06:02:35;;;;;;;11.50;6.55;;;31.10;99.90;;;;;;5137964;27;20027;-57
2020/12/17 06:05:06;;;;;;;;;;;31.20;99.90;;;;;;5119658;27;20114;-58
2020/12/17 06:07:58;;;;;;;10.55;6.03;;;31.40;99.90;;;;;;5084492;27;19915;-56
2020/12/17 06:10:30;;;;;;;9.57;5.70;;;31.40;99.90;;;;;;5137670;27;20057;-57
2020/12/17 06:13:03;;;;;;;9.07;5.50;;;31.40;99.90;;;;;;5137368;27;20031;-57
2020/12/17 06:15:33;;;;;;;10.38;5.55;;;31.40;99.90;;;;;;5137158;27;20091;-57
2020/12/17 06:18:04;;;;;;;10.25;5.35;;;31.50;99.90;;;;;;5137414;27;20046;-56
2020/12/17 06:20:33;;;;;;;8.77;5.53;;;31.50;99.90;;;;;;5137268;27;20421;-57
2020/12/17 06:23:02;;;;;;;;;;;31.60;99.90;;;;;;5137788;27;20473;-56
2020/12/17 06:25:32;;;;;;;9.48;5.30;;;31.60;99.90;;;;;;5137125;27;19904;-57
2020/12/17 06:28:01;;;;;;;10.70;5.97;;;31.90;99.90;;;;;;5136854;27;20106;-56
2020/12/17 06:30:34;;;;;;;9.50;5.55;;;32.10;99.90;;;;;;5136705;27;20026;-56
2020/12/17 06:33:05;;;;;;;12.45;6.18;;;32.30;99.90;;;;;;5119215;27;20122;-57
2020/12/17 06:35:53;;;;;;;8.82;5.93;;;32.60;99.90;;;;;;5100655;27;20171;-57
2020/12/17 06:38:30;;;;;;;12.10;5.93;;;32.60;99.90;;;;;;5136878;27;20047;-56
2020/12/17 06:41:14;;;;;;;8.75;5.80;;;32.60;99.90;;;;;;5118792;27;20416;-57
2020/12/17 06:43:42;;;;;;;11.93;5.85;;;32.60;99.90;;;;;;5136841;27;20037;-57
2020/12/17 06:46:37;;;;;;;10.90;6.35;;;32.30;99.90;;;;;;5118176;27;20043;-56
2020/12/17 06:49:10;;;;;;;9.20;5.78;;;31.80;99.90;;;;;;5136794;27;20483;-56
2020/12/17 06:51:41;;;;;;;10.57;6.15;;;31.20;99.90;;;;;;5136902;27;20489;-56
2020/12/17 06:54:30;;;;;;;14.27;6.45;;;31.20;99.90;;;;;;5136750;27;20112;-57
2020/12/17 06:57:07;;;;;;;9.70;5.70;;;32.00;99.90;;;;;;5093301;28;20143;-57
2020/12/17 06:59:37;;;;;;;10.77;5.60;;;32.70;99.90;;;;;;5093188;28;20024;-58
2020/12/17 07:02:06;;;;;;;10.68;6.00;;;33.30;99.90;;;;;;5093208;28;20024;-56
2020/12/17 07:04:40;;;;;;;11.82;6.03;;;33.80;99.90;;;;;;5092280;28;20021;-56
2020/12/17 07:07:19;;;;;;;10.82;6.28;;;34.20;99.90;;;;;;5092613;28;20126;-58
2020/12/17 07:09:48;;;;;;;;;;;34.40;99.90;;;;;;5093635;28;20028;-57
2020/12/17 07:12:42;;;;;;;11.27;6.75;;;34.40;99.90;;;;;;5093010;28;19936;-56
2020/12/17 07:15:35;;;;;;;12.15;7.07;;;34.00;99.90;;;;;;5092872;28;20067;-55
2020/12/17 07:18:25;;;;;;;11.00;6.78;;;33.30;99.90;;;;;;5072546;28;20106;-56
2020/12/17 07:21:05;;;;;;;14.20;6.75;;;32.50;99.90;;;;;;5052409;28;20056;-57
2020/12/17 07:23:38;;;;;;;11.18;6.90;;;31.90;99.90;;;;;;5052629;28;20078;-55
2020/12/17 07:26:15;;;;;;;11.15;6.72;;;31.60;99.90;;;;;;5052458;28;20025;-58
2020/12/17 07:28:53;;;;;;;15.38;7.22;;;31.40;99.90;;;;;;5069008;28;20024;-56
2020/12/17 07:31:26;;;;;;;14.02;6.88;;;31.10;99.90;;;;;;5072740;28;20036;-56
2020/12/17 07:33:55;;;;;;;11.63;7.32;;;31.00;99.90;;;;;;5072343;28;20082;-57
2020/12/17 07:36:48;;;;;;;11.67;6.77;;;30.90;99.90;;;;;;5032291;28;20604;-56
2020/12/17 07:39:16;;;;;;;9.73;6.60;;;30.70;99.90;;;;;;4992780;28;20280;-56
2020/12/17 07:41:45;;;;;;;9.52;6.70;;;30.70;99.90;;;;;;4992810;28;20037;-57
2020/12/17 07:44:13;;;;;;;9.60;7.10;;;30.50;99.90;;;;;;4992832;28;20031;-55
2020/12/17 07:46:42;;;;;;;7.05;6.07;;;30.30;99.90;;;;;;4992824;28;20053;-56
2020/12/17 07:49:26;;;;;;;6.88;6.25;;;30.00;99.90;;;;;;5004939;28;20092;-57
2020/12/17 07:51:54;;;;;;;8.80;6.32;;;29.80;99.90;;;;;;5023148;28;20371;-56
2020/12/17 07:54:23;;;;;;;8.93;6.15;;;29.50;99.90;;;;;;5032023;28;20101;-57
2020/12/17 07:56:59;;;;;;;8.60;6.57;;;29.40;99.90;;;;;;5031796;28;20351;-57
2020/12/17 07:59:31;;;;;;;9.68;7.10;;;29.20;99.90;;;;;;5032138;28;20025;-56
2020/12/17 08:02:03;;;;;;;9.85;7.47;;;29.10;99.90;;;;;;5031792;28;20037;-55
2020/12/17 08:04:31;;;;;;;7.05;6.35;;;29.10;99.90;;;;;;5031834;28;20188;-56
2020/12/17 08:07:10;;;;;;;9.43;6.75;;;29.00;99.90;;;;;;5045194;28;20059;-57
2020/12/17 08:09:38;;;;;;;9.30;7.20;;;28.90;99.90;;;;;;5055667;28;20033;-55
2020/12/17 08:12:11;;;;;;;7.82;6.55;;;28.80;99.90;;;;;;5022573;28;20032;-57
2020/12/17 08:14:39;;;;;;;9.13;6.90;;;28.80;99.90;;;;;;5071473;28;20032;-56
2020/12/17 08:17:08;;;;;;;11.68;7.05;;;28.70;99.90;;;;;;5082628;27;20043;-56
2020/12/17 08:19:37;;;;;;;15.20;8.18;;;28.60;99.90;;;;;;5134598;27;20452;-57
2020/12/17 08:22:08;;;;;;;16.58;7.70;;;28.40;99.90;;;;;;5134623;27;20521;-56
2020/12/17 08:24:37;;;;;;;15.77;8.05;;;28.30;99.90;;;;;;5134497;27;20031;-57
2020/12/17 08:27:05;;;;;;;17.30;8.32;;;28.30;99.90;;;;;;5134872;27;20015;-57
2020/12/17 08:29:33;;;;;;;12.88;7.90;;;28.10;99.90;;;;;;5134419;27;20044;-54
2020/12/17 08:32:08;;;;;;;17.42;9.20;;;28.10;99.90;;;;;;5134366;27;20035;-57
2020/12/17 08:34:36;;;;;;;16.48;8.13;;;28.00;99.90;;;;;;5134620;27;20072;-55
2020/12/17 08:37:04;;;;;;;17.40;8.25;;;27.90;99.90;;;;;;5134709;27;20377;-58
2020/12/17 08:39:32;;;;;;;18.35;9.13;;;27.70;99.90;;;;;;5134331;27;20023;-55
2020/12/17 08:42:00;;;;;;;14.02;8.65;;;27.60;99.90;;;;;;5134264;27;20019;-54
2020/12/17 08:44:31;;;;;;;20.50;8.82;;;27.50;99.90;;;;;;5134560;27;20023;-54
2020/12/17 08:47:05;;;;;;;14.75;8.10;;;27.30;99.90;;;;;;5115971;27;20362;-54
2020/12/17 08:49:34;;;;;;;16.83;8.90;;;27.20;99.90;;;;;;5134529;27;20023;-55
2020/12/17 08:52:02;;;;;;;15.82;8.20;;;27.10;99.90;;;;;;5134198;27;20522;-57
2020/12/17 08:54:39;;;;;;;10.57;7.85;;;27.00;99.90;;;;;;5134413;27;20023;-55
2020/12/17 08:57:12;;;;;;;15.20;8.15;;;26.90;99.90;;;;;;5115699;27;20071;-54
2020/12/17 08:59:40;;;;;;;12.88;7.95;;;26.90;99.90;;;;;;5134266;27;20471;-58
2020/12/17 09:02:08;;;;;;;11.68;7.93;;;26.90;99.90;;;;;;5134059;27;20015;-57
2020/12/17 09:04:36;;;;;;;11.52;8.18;;;26.80;99.90;;;;;;5134102;27;20031;-56
2020/12/17 09:07:06;;;;;;;11.18;7.15;;;26.70;99.90;;;;;;5115329;27;20035;-58
2020/12/17 09:09:34;;;;;;;12.70;7.85;;;26.60;99.90;;;;;;5134027;27;20048;-56
2020/12/17 09:12:02;;;;;;;8.75;7.18;;;26.50;99.90;;;;;;5098517;27;20103;-55
2020/12/17 09:14:32;;;;;;;9.77;7.35;;;26.40;99.90;;;;;;5134097;27;20027;-56
2020/12/17 09:17:20;;;;;;;11.65;7.25;;;26.40;99.90;;;;;;5134163;27;20027;-56
2020/12/17 09:19:50;;;;;;;11.95;7.68;;;26.30;99.90;;;;;;5090836;28;20031;-56
2020/12/17 09:22:20;;;;;;;14.10;8.02;;;26.30;99.90;;;;;;5090997;28;20032;-55
2020/12/17 09:24:54;;;;;;;10.88;7.47;;;26.20;99.90;;;;;;5090424;28;20056;-56
2020/12/17 09:27:28;;;;;;;11.50;7.80;;;26.10;99.90;;;;;;5073610;28;20357;-57
2020/12/17 09:30:08;;;;;;;12.55;7.40;;;26.10;99.90;;;;;;5090281;28;20032;-58
2020/12/17 09:32:50;;;;;;;9.45;7.47;;;26.00;99.90;;;;;;5090813;28;20028;-55
2020/12/17 09:35:19;;;;;;;11.63;7.15;;;25.90;99.90;;;;;;5090520;28;20123;-56
2020/12/17 09:38:08;;;;;;;10.48;7.38;;;25.90;99.90;;;;;;5090464;28;20096;-52
2020/12/17 09:40:40;;;;;;;11.75;7.38;;;25.90;99.90;;;;;;5070070;28;20041;-56
2020/12/17 09:43:15;;;;;;;9.40;8.15;;;25.90;99.90;;;;;;5070325;28;20068;-53
2020/12/17 09:45:46;;;;;;;9.55;8.30;;;25.90;99.90;;;;;;5070035;28;20061;-57
2020/12/17 09:48:33;;;;;;;9.50;8.32;;;25.90;99.90;;;;;;5070084;28;20104;-56
2020/12/17 09:51:10;;;;;;;9.50;8.02;;;26.00;99.90;;;;;;5062118;28;20060;-57
2020/12/17 09:53:40;;;;;;;9.18;8.38;;;26.10;99.90;;;;;;5053251;28;20039;-56
2020/12/17 09:56:13;;;;;;;10.73;8.40;;;26.00;99.90;;;;;;5069956;28;20044;-59
2020/12/17 09:58:46;;;;;;;9.70;8.00;;;26.10;99.90;;;;;;5069898;28;20075;-57
2020/12/17 10:01:14;;;;;;;10.30;8.57;;;26.00;99.90;;;;;;5069989;28;20036;-58
2020/12/17 10:03:42;;;;;;;10.02;8.70;;;26.00;99.90;;;;;;5069890;28;20029;-57
2020/12/17 10:06:11;;;;;;;11.95;8.68;;;26.00;99.90;;;;;;5069700;28;20500;-57
2020/12/17 10:08:39;;;;;;;9.70;8.68;;;26.00;99.90;;;;;;5069958;28;20036;-59
2020/12/17 10:11:09;;;;;;;9.13;8.25;;;26.00;99.90;;;;;;5069763;28;20047;-59
2020/12/17 10:13:37;;;;;;;10.27;9.27;;;26.00;99.90;;;;;;5053389;28;20040;-58
2020/12/17 10:16:05;;;;;;;14.05;8.63;;;26.00;99.90;;;;;;5069866;28;20285;-57
2020/12/17 10:18:33;;;;;;;9.15;8.32;;;26.00;99.90;;;;;;5085163;28;20480;-57
2020/12/17 10:21:02;;;;;;;11.13;8.52;;;25.90;99.90;;;;;;5089963;28;20024;-57
2020/12/17 10:23:30;;;;;;;10.07;8.80;;;25.90;99.90;;;;;;5073380;28;20031;-57
2020/12/17 10:25:58;;;;;;;10.45;8.50;;;25.80;99.90;;;;;;5090007;28;20024;-58
2020/12/17 10:28:26;;;;;;;12.65;8.68;;;25.90;99.90;;;;;;5101612;28;20027;-58
2020/12/17 10:30:54;;;;;;;9.60;8.75;;;25.80;99.90;;;;;;5112557;28;20023;-58
2020/12/17 10:33:22;;;;;;;15.30;9.48;;;25.80;99.90;;;;;;5112804;28;20088;-59
2020/12/17 10:35:50;;;;;;;11.18;8.88;;;25.80;99.90;;;;;;5112508;28;20031;-58
2020/12/17 10:38:19;;;;;;;11.48;9.75;;;25.80;99.90;;;;;;5112418;28;20092;-58
2020/12/17 10:40:47;;;;;;;10.00;9.00;;;25.80;99.90;;;;;;5115093;28;20060;-58
2020/12/17 10:43:15;;;;;;;11.40;9.50;;;25.80;99.90;;;;;;5116029;28;20028;-58
2020/12/17 10:45:43;;;;;;;11.05;9.40;;;25.70;99.90;;;;;;5116508;27;20398;-57
2020/12/17 10:48:11;;;;;;;12.45;9.20;;;25.80;99.90;;;;;;5115969;27;20027;-56
2020/12/17 10:50:39;;;;;;;10.02;8.82;;;25.80;99.90;;;;;;5116222;28;20072;-58
2020/12/17 10:53:08;;;;;;;12.48;9.40;;;25.80;99.90;;;;;;5114748;28;20024;-58
2020/12/17 10:55:36;;;;;;;11.63;9.73;;;25.80;99.90;;;;;;5115825;28;20031;-58
2020/12/17 10:58:06;;;;;;;10.75;9.38;;;25.80;99.90;;;;;;5115929;28;20031;-57
2020/12/17 11:00:35;;;;;;;9.77;8.60;;;25.80;99.90;;;;;;5115923;28;20031;-57
2020/12/17 11:03:04;;;;;;;10.68;9.02;;;25.80;99.90;;;;;;5115911;28;20116;-57
2020/12/17 11:05:32;;;;;;;11.77;9.48;;;25.70;99.90;;;;;;5115632;27;20023;-56
2020/12/17 11:08:00;;;;;;;10.13;9.13;;;25.70;99.90;;;;;;5131809;27;20047;-57
2020/12/17 11:10:29;;;;;;;13.88;9.50;;;25.70;99.90;;;;;;5136407;27;20027;-58
2020/12/17 11:12:57;;;;;;;12.35;9.27;;;25.70;99.90;;;;;;5136330;27;20019;-56
2020/12/17 11:15:25;;;;;;;14.10;9.20;;;25.70;99.90;;;;;;5100319;27;20043;-58
2020/12/17 11:17:53;;;;;;;10.20;8.98;;;25.70;99.90;;;;;;5135982;27;20023;-58
2020/12/17 11:20:21;;;;;;;9.23;8.38;;;25.70;99.90;;;;;;5135817;27;20514;-59
2020/12/17 11:22:49;;;;;;;9.63;8.80;;;25.70;99.90;;;;;;5117554;27;20027;-59
2020/12/17 11:25:18;;;;;;;12.57;9.55;;;25.70;99.90;;;;;;5135809;27;20020;-58
2020/12/17 11:27:48;;;;;;;10.48;9.45;;;25.70;99.90;;;;;;5135985;27;20025;-59
2020/12/17 11:30:16;;;;;;;11.50;9.50;;;25.70;99.90;;;;;;5136112;27;20027;-57
2020/12/17 11:32:44;;;;;;;10.05;9.07;;;25.60;99.90;;;;;;5135744;27;20076;-58
2020/12/17 11:35:12;;;;;;;10.25;9.43;;;25.40;99.90;;;;;;5135776;27;20027;-59
2020/12/17 11:37:40;;;;;;;10.32;9.40;;;25.30;99.90;;;;;;5135977;27;20060;-58
2020/12/17 11:40:08;;;;;;;9.85;9.05;;;25.10;99.90;;;;;;5135490;27;20036;-58
2020/12/17 11:42:36;;;;;;;10.65;9.35;;;25.00;99.90;;;;;;5135677;27;20026;-58
2020/12/17 11:45:04;;;;;;;10.10;9.18;;;25.00;99.90;;;;;;5135640;27;20031;-57
2020/12/17 11:47:33;;;;;;;10.27;9.30;;;24.90;99.90;;;;;;5135569;27;20105;-57
2020/12/17 11:50:00;;;;;;;11.38;9.23;;;24.80;99.90;;;;;;5135710;27;20035;-59
2020/12/17 11:52:28;;;;;;;9.77;8.98;;;24.80;99.90;;;;;;5135012;27;20023;-59
2020/12/17 11:54:56;;;;;;;9.57;8.60;;;24.80;99.90;;;;;;5135321;27;20033;-59
2020/12/17 11:57:25;;;;;;;9.52;8.82;;;24.70;99.90;;;;;;5135529;27;20091;-59
2020/12/17 11:59:53;;;;;;;10.20;9.40;;;24.70;99.90;;;;;;5135270;27;20106;-58
2020/12/17 12:02:21;;;;;;;9.50;8.80;;;24.80;99.90;;;;;;5134981;27;20023;-57
2020/12/17 12:04:49;;;;;;;9.88;8.98;;;24.80;99.90;;;;;;5135131;27;20023;-58
2020/12/17 12:07:17;;;;;;;9.35;8.60;;;24.80;99.90;;;;;;5134943;27;20047;-57
2020/12/17 12:09:46;;;;;;;8.88;8.25;;;24.80;99.90;;;;;;5135198;27;20360;-58
2020/12/17 12:12:14;;;;;;;9.50;8.73;;;24.80;99.90;;;;;;5134682;27;20134;-58
2020/12/17 12:14:42;;;;;;;9.27;8.60;;;24.80;99.90;;;;;;5116467;27;20031;-59
2020/12/17 12:17:10;;;;;;;10.75;8.50;;;24.90;99.90;;;;;;5099134;27;20086;-57
2020/12/17 12:19:38;;;;;;;8.57;8.07;;;24.90;99.90;;;;;;5134703;27;20027;-59
2020/12/17 12:22:07;;;;;;;8.65;7.88;;;24.80;99.90;;;;;;5134748;27;20019;-59
2020/12/17 12:24:35;;;;;;;8.35;7.65;;;24.80;99.90;;;;;;5134771;27;20153;-58
2020/12/17 12:27:03;;;;;;;8.50;7.80;;;24.80;99.90;;;;;;5134871;27;20031;-58
2020/12/17 12:29:31;;;;;;;8.68;7.82;;;24.80;99.90;;;;;;5099245;27;20070;-58
2020/12/17 12:31:59;;;;;;;8.18;7.47;;;24.70;99.90;;;;;;5134876;27;20412;-59
2020/12/17 12:34:29;;;;;;;7.55;7.05;;;24.70;99.90;;;;;;5134869;27;20478;-59
2020/12/17 12:36:58;;;;;;;8.27;7.53;;;24.70;99.90;;;;;;5134764;27;20122;-59
2020/12/17 12:39:26;;;;;;;7.60;7.18;;;24.60;99.90;;;;;;5134685;27;20058;-59
2020/12/17 12:41:55;;;;;;;7.97;7.38;;;24.70;99.90;;;;;;5134305;27;20088;-58
2020/12/17 12:44:23;;;;;;;7.80;7.40;;;24.60;99.90;;;;;;5134580;27;20027;-57
2020/12/17 12:46:52;;;;;;;8.15;7.60;;;24.70;99.90;;;;;;5134134;27;20037;-57
2020/12/17 12:49:19;;;;;;;7.82;7.40;;;24.70;99.90;;;;;;5134494;27;20522;-58
2020/12/17 12:51:48;;;;;;;8.40;7.60;;;24.60;99.90;;;;;;5134413;27;20023;-58
2020/12/17 12:54:17;;;;;;;8.10;7.60;;;24.60;99.90;;;;;;5134306;27;20023;-59
2020/12/17 12:56:45;;;;;;;8.13;7.50;;;24.60;99.90;;;;;;5134523;27;20102;-59